createdAt,value
2022-10-19T00:01:09.469Z,12.30
2022-10-19T00:03:39.445Z,12.30
2022-10-19T00:06:15.748Z,12.20
2022-10-19T00:08:44.417Z,12.30
2022-10-19T00:11:12.763Z,12.30
2022-10-19T00:13:41.195Z,12.40
2022-10-19T00:16:11.470Z,12.40
2022-10-19T00:18:43.219Z,12.30
2022-10-19T00:21:13.573Z,12.40
2022-10-19T00:23:41.754Z,12.30
2022-10-19T00:26:09.850Z,12.10
2022-10-19T00:28:38.246Z,12.10
2022-10-19T00:31:07.506Z,12.10
2022-10-19T00:33:35.521Z,12.10
2022-10-19T00:36:05.906Z,12.10
2022-10-19T00:38:33.867Z,12.10
2022-10-19T00:41:03.216Z,12.10
2022-10-19T00:43:32.528Z,12.10
2022-10-19T00:46:00.473Z,12.20
2022-10-19T00:48:32.799Z,12.10
2022-10-19T00:51:01.800Z,12.10
2022-10-19T00:53:31.816Z,12.10
2022-10-19T00:56:02.066Z,12.00
2022-10-19T00:58:30.073Z,12.00
2022-10-19T01:00:59.886Z,12.00
2022-10-19T01:03:28.119Z,12.00
2022-10-19T01:05:56.714Z,11.90
2022-10-19T01:08:24.867Z,11.90
2022-10-19T01:11:05.516Z,11.90
2022-10-19T01:13:42.502Z,11.90
2022-10-19T01:16:19.257Z,11.90
2022-10-19T01:18:54.071Z,11.90
2022-10-19T01:21:24.532Z,11.90
2022-10-19T01:24:38.338Z,11.90
2022-10-19T01:27:54.522Z,11.90
2022-10-19T01:30:42.082Z,11.80
2022-10-19T01:33:31.938Z,11.70
2022-10-19T01:36:07.166Z,11.70
2022-10-19T01:38:39.419Z,11.70
2022-10-19T01:41:15.950Z,11.70
2022-10-19T01:43:49.915Z,11.60
2022-10-19T01:46:22.950Z,11.60
2022-10-19T01:48:56.077Z,11.50
2022-10-19T01:51:28.066Z,11.50
2022-10-19T01:53:59.846Z,11.50
2022-10-19T01:56:31.570Z,11.50
2022-10-19T01:59:01.982Z,11.50
2022-10-19T02:01:34.654Z,11.50
2022-10-19T02:04:04.181Z,11.40
2022-10-19T02:06:32.917Z,11.30
2022-10-19T02:09:00.885Z,11.30
2022-10-19T02:11:30.186Z,11.30
2022-10-19T02:14:02.998Z,11.30
2022-10-19T02:16:38.935Z,11.30
2022-10-19T02:19:09.352Z,11.30
2022-10-19T02:21:37.395Z,11.20
2022-10-19T02:24:06.035Z,11.30
2022-10-19T02:26:34.298Z,11.30
2022-10-19T02:29:02.551Z,11.30
2022-10-19T02:31:32.707Z,11.20
2022-10-19T02:34:01.096Z,11.20
2022-10-19T02:36:29.134Z,11.20
2022-10-19T02:38:57.141Z,11.20
2022-10-19T02:41:30.121Z,11.20
2022-10-19T02:44:02.506Z,11.20
2022-10-19T02:46:37.102Z,11.20
2022-10-19T02:49:07.236Z,11.10
2022-10-19T02:51:36.649Z,11.10
2022-10-19T02:54:06.206Z,11.10
2022-10-19T02:56:34.526Z,11.10
2022-10-19T02:59:02.779Z,11.00
2022-10-19T03:01:30.817Z,11.10
2022-10-19T03:04:00.246Z,11.10
2022-10-19T03:06:28.232Z,11.10
2022-10-19T03:08:56.273Z,11.10
2022-10-19T03:11:24.248Z,11.10
2022-10-19T03:13:52.266Z,11.00
2022-10-19T03:16:20.269Z,11.10
2022-10-19T03:18:49.501Z,11.10
2022-10-19T03:21:19.574Z,11.00
2022-10-19T03:23:47.514Z,11.00
2022-10-19T03:26:17.154Z,11.00
2022-10-19T03:28:45.441Z,11.00
2022-10-19T03:31:13.523Z,11.00
2022-10-19T03:33:41.542Z,11.00
2022-10-19T03:36:23.041Z,11.00
2022-10-19T03:38:52.725Z,11.00
2022-10-19T03:41:21.875Z,10.90
2022-10-19T03:43:50.256Z,10.80
2022-10-19T03:46:18.426Z,10.80
2022-10-19T03:48:46.372Z,10.70
2022-10-19T03:51:17.333Z,10.60
2022-10-19T03:53:47.156Z,10.60
2022-10-19T03:56:17.162Z,10.40
2022-10-19T03:58:46.841Z,10.30
2022-10-19T04:01:17.075Z,10.30
2022-10-19T04:03:45.634Z,10.30
2022-10-19T04:06:21.300Z,10.40
2022-10-19T04:08:51.862Z,10.40
2022-10-19T04:11:23.454Z,10.40
2022-10-19T04:13:52.196Z,10.40
2022-10-19T04:16:20.909Z,10.50
2022-10-19T04:18:49.179Z,10.50
2022-10-19T04:21:25.306Z,10.40
2022-10-19T04:23:58.250Z,10.50
2022-10-19T04:26:26.221Z,10.40
2022-10-19T04:28:54.228Z,10.40
2022-10-19T04:31:22.213Z,10.40
2022-10-19T04:33:50.161Z,10.40
2022-10-19T04:36:18.193Z,10.40
2022-10-19T04:38:46.187Z,10.40
2022-10-19T04:41:17.370Z,10.40
2022-10-19T04:43:45.427Z,10.40
2022-10-19T04:46:15.682Z,10.50
2022-10-19T04:48:44.589Z,10.40
2022-10-19T04:51:12.918Z,10.30
2022-10-19T04:53:41.968Z,10.30
2022-10-19T04:56:13.714Z,10.30
2022-10-19T04:58:43.262Z,10.30
2022-10-19T05:01:12.637Z,10.30
2022-10-19T05:03:41.090Z,10.30
2022-10-19T05:06:10.198Z,10.30
2022-10-19T05:08:39.063Z,10.30
2022-10-19T05:11:09.393Z,10.20
2022-10-19T05:13:37.865Z,10.20
2022-10-19T05:16:08.899Z,10.20
2022-10-19T05:18:36.884Z,10.30
2022-10-19T05:21:06.297Z,10.30
2022-10-19T05:23:35.100Z,10.30
2022-10-19T05:26:05.143Z,10.20
2022-10-19T05:28:33.625Z,10.20
2022-10-19T05:31:13.802Z,10.20
2022-10-19T05:33:42.678Z,10.20
2022-10-19T05:36:15.869Z,10.20
2022-10-19T05:38:44.091Z,10.20
2022-10-19T05:41:12.543Z,10.10
2022-10-19T05:43:40.739Z,10.10
2022-10-19T05:46:10.795Z,10.10
2022-10-19T05:48:41.295Z,10.10
2022-10-19T05:51:11.569Z,10.10
2022-10-19T05:53:39.903Z,10.10
2022-10-19T05:56:10.209Z,10.10
2022-10-19T05:58:38.164Z,10.20
2022-10-19T06:01:06.568Z,10.30
2022-10-19T06:03:34.618Z,10.30
2022-10-19T06:06:06.618Z,10.20
2022-10-19T06:08:35.373Z,10.10
2022-10-19T06:11:07.837Z,10.00
2022-10-19T06:13:36.334Z,10.00
2022-10-19T06:16:05.489Z,9.90
2022-10-19T06:18:33.962Z,9.90
2022-10-19T06:21:05.621Z,9.90
2022-10-19T06:23:34.742Z,9.90
2022-10-19T06:26:04.778Z,9.90
2022-10-19T06:28:32.991Z,10.00
2022-10-19T06:31:01.321Z,9.90
2022-10-19T06:33:30.210Z,10.00
2022-10-19T06:36:05.624Z,9.90
2022-10-19T06:38:35.154Z,10.00
2022-10-19T06:41:03.262Z,10.00
2022-10-19T06:43:31.485Z,10.00
2022-10-19T06:45:59.763Z,10.00
2022-10-19T06:48:27.815Z,9.90
2022-10-19T06:50:59.434Z,9.90
2022-10-19T06:53:29.044Z,10.00
2022-10-19T06:56:00.311Z,10.00
2022-10-19T06:58:28.722Z,10.00
2022-10-19T07:00:58.064Z,10.10
2022-10-19T07:03:26.333Z,10.10
2022-10-19T07:05:55.720Z,10.10
2022-10-19T07:08:24.335Z,10.20
2022-10-19T07:10:53.164Z,10.20
2022-10-19T07:13:22.943Z,10.10
2022-10-19T07:15:51.139Z,10.10
2022-10-19T07:18:19.090Z,10.10
2022-10-19T07:20:55.779Z,10.20
2022-10-19T07:23:23.994Z,10.20
2022-10-19T07:25:53.160Z,10.20
2022-10-19T07:28:23.570Z,10.30
2022-10-19T07:30:51.599Z,10.30
2022-10-19T07:33:19.632Z,10.40
2022-10-19T07:35:47.582Z,10.50
2022-10-19T07:38:15.579Z,10.50
2022-10-19T07:40:46.490Z,10.50
2022-10-19T07:43:15.642Z,10.60
2022-10-19T07:45:44.978Z,10.70
2022-10-19T07:48:12.961Z,10.80
2022-10-19T07:50:40.941Z,10.90
2022-10-19T07:53:08.903Z,11.00
2022-10-19T07:55:36.840Z,11.10
2022-10-19T07:58:04.821Z,11.20
2022-10-19T08:00:32.973Z,11.20
2022-10-19T08:03:43.282Z,11.20
2022-10-19T08:05:50.415Z,11.30
2022-10-19T08:08:18.370Z,11.30
2022-10-19T08:10:46.415Z,11.40
2022-10-19T08:13:14.415Z,11.40
2022-10-19T08:15:42.440Z,11.50
2022-10-19T08:18:12.448Z,11.60
2022-10-19T08:20:42.214Z,11.60
2022-10-19T08:23:10.227Z,11.70
2022-10-19T08:25:38.243Z,11.80
2022-10-19T08:28:06.300Z,11.90
2022-10-19T08:30:35.852Z,11.90
2022-10-19T08:33:05.198Z,11.90
2022-10-19T08:35:34.617Z,12.00
2022-10-19T08:38:03.031Z,11.90
2022-10-19T08:40:32.134Z,12.10
2022-10-19T08:43:06.405Z,12.10
2022-10-19T08:45:44.373Z,12.20
2022-10-19T08:48:26.289Z,12.30
2022-10-19T08:50:56.721Z,12.60
2022-10-19T08:53:34.425Z,12.60
2022-10-19T08:56:45.852Z,12.60
2022-10-19T08:59:18.661Z,12.70
2022-10-19T09:01:53.753Z,12.70
2022-10-19T09:04:25.541Z,12.70
2022-10-19T09:07:08.956Z,12.80
2022-10-19T09:09:40.947Z,12.80
2022-10-19T09:12:12.970Z,12.80
2022-10-19T09:14:50.876Z,12.80
2022-10-19T09:17:18.870Z,12.90
2022-10-19T09:19:46.889Z,13.00
2022-10-19T09:22:21.558Z,13.00
2022-10-19T09:24:52.666Z,13.10
2022-10-19T09:27:24.002Z,13.10
2022-10-19T09:29:56.096Z,13.20
2022-10-19T09:32:27.627Z,13.20
2022-10-19T09:34:58.809Z,13.20
2022-10-19T09:40:01.136Z,13.40
2022-10-19T09:42:33.293Z,13.50
2022-10-19T09:45:03.571Z,13.50
2022-10-19T09:47:35.772Z,13.60
2022-10-19T09:50:14.894Z,13.60
2022-10-19T09:52:45.200Z,13.70
2022-10-19T09:55:30.375Z,13.80
2022-10-19T09:58:05.134Z,13.80
2022-10-19T10:00:36.414Z,13.80
2022-10-19T10:03:05.992Z,13.90
2022-10-19T10:05:35.938Z,14.00
2022-10-19T10:08:06.222Z,14.10
2022-10-19T10:10:40.090Z,14.20
2022-10-19T10:13:08.086Z,14.20
2022-10-19T10:15:44.075Z,14.20
2022-10-19T10:18:15.417Z,14.20
2022-10-19T10:21:00.019Z,14.30
2022-10-19T10:23:33.987Z,14.40
2022-10-19T10:26:02.165Z,14.50
2022-10-19T10:28:31.672Z,14.50
2022-10-19T10:31:06.083Z,14.50
2022-10-19T10:33:45.151Z,14.60
2022-10-19T10:36:14.108Z,14.60
2022-10-19T10:38:47.040Z,14.60
2022-10-19T10:41:18.589Z,14.70
2022-10-19T10:43:57.597Z,14.80
2022-10-19T10:46:33.850Z,14.90
2022-10-19T10:49:04.874Z,15.10
2022-10-19T10:51:38.675Z,15.10
2022-10-19T10:54:21.798Z,15.10
2022-10-19T10:57:12.331Z,15.10
2022-10-19T10:59:52.929Z,15.20
2022-10-19T11:02:32.851Z,15.20
2022-10-19T11:05:05.431Z,15.20
2022-10-19T11:07:36.090Z,15.20
2022-10-19T11:10:14.377Z,15.30
2022-10-19T11:12:47.509Z,15.30
2022-10-19T11:15:21.677Z,15.30
2022-10-19T11:17:59.120Z,15.40
2022-10-19T11:20:31.121Z,15.50
2022-10-19T11:23:09.118Z,15.60
2022-10-19T11:25:51.817Z,15.70
2022-10-19T11:28:33.000Z,15.80
2022-10-19T11:31:08.463Z,15.80
2022-10-19T11:34:00.304Z,15.80
2022-10-19T11:36:42.518Z,15.90
2022-10-19T11:39:32.214Z,15.90
2022-10-19T11:42:09.983Z,15.90
2022-10-19T11:44:51.500Z,16.00
2022-10-19T11:47:36.250Z,16.00
2022-10-19T11:50:20.719Z,16.00
2022-10-19T11:52:53.280Z,16.20
2022-10-19T11:55:34.289Z,16.20
2022-10-19T11:58:20.496Z,16.30
2022-10-19T12:00:53.688Z,16.40
2022-10-19T12:04:03.422Z,16.50
2022-10-19T12:06:38.574Z,16.70
2022-10-19T12:09:23.693Z,16.80
2022-10-19T12:12:06.962Z,16.90
2022-10-19T12:14:40.599Z,16.90
2022-10-19T12:19:49.012Z,17.10
2022-10-19T12:22:22.524Z,17.20
2022-10-19T12:24:51.258Z,17.30
2022-10-19T12:27:33.109Z,17.30
2022-10-19T12:30:07.987Z,17.40
2022-10-19T12:32:45.838Z,17.40
2022-10-19T12:35:32.881Z,17.40
2022-10-19T12:38:08.795Z,17.40
2022-10-19T12:40:40.931Z,17.50
2022-10-19T12:43:14.148Z,17.50
2022-10-19T12:45:47.007Z,17.60
2022-10-19T12:48:20.714Z,17.60
2022-10-19T12:51:01.774Z,17.80
2022-10-19T12:53:32.311Z,17.80
2022-10-19T12:56:02.057Z,17.90
2022-10-19T12:58:35.108Z,17.90
2022-10-19T13:01:07.007Z,18.00
2022-10-19T13:03:36.793Z,18.10
2022-10-19T13:06:11.917Z,18.30
2022-10-19T13:08:44.597Z,18.40
2022-10-19T13:11:15.517Z,18.60
2022-10-19T13:13:58.885Z,18.60
2022-10-19T13:16:58.922Z,18.70
2022-10-19T13:19:27.337Z,18.70
2022-10-19T13:22:28.183Z,18.80
2022-10-19T13:25:23.589Z,18.80
2022-10-19T13:27:52.466Z,18.80
2022-10-19T13:31:03.387Z,18.70
2022-10-19T13:33:52.987Z,18.60
2022-10-19T13:36:22.437Z,18.80
2022-10-19T13:39:08.526Z,18.80
2022-10-19T13:41:57.227Z,19.00
2022-10-19T13:44:33.809Z,19.10
2022-10-19T13:50:37.191Z,19.00
2022-10-19T13:53:30.507Z,19.00
2022-10-19T13:56:20.648Z,19.00
2022-10-19T13:59:38.749Z,19.00
2022-10-19T14:02:40.808Z,19.00
2022-10-19T14:05:26.932Z,19.00
2022-10-19T14:08:09.905Z,19.00
2022-10-19T14:13:27.090Z,18.90
2022-10-19T14:15:57.071Z,18.80
2022-10-19T14:18:27.423Z,18.70
2022-10-19T14:21:00.118Z,18.50
2022-10-19T14:23:31.075Z,18.40
2022-10-19T14:26:01.547Z,18.30
2022-10-19T14:28:30.764Z,18.20
2022-10-19T14:31:01.658Z,18.10
2022-10-19T14:33:33.803Z,18.00
2022-10-19T14:36:02.249Z,18.00
2022-10-19T14:38:36.204Z,17.90
2022-10-19T14:41:05.572Z,17.80
2022-10-19T14:43:34.991Z,17.80
2022-10-19T14:46:13.150Z,17.70
2022-10-19T14:48:42.540Z,17.70
2022-10-19T14:51:24.119Z,17.70
2022-10-19T14:53:58.265Z,17.70
2022-10-19T14:56:34.581Z,17.70
2022-10-19T14:59:06.177Z,17.60
2022-10-19T15:01:35.870Z,17.60
2022-10-19T15:04:04.265Z,17.60
2022-10-19T15:06:35.660Z,17.60
2022-10-19T15:09:15.340Z,17.70
2022-10-19T15:11:53.896Z,17.60
2022-10-19T15:14:26.938Z,17.70
2022-10-19T15:16:56.609Z,17.70
2022-10-19T15:19:29.424Z,17.70
2022-10-19T15:22:17.959Z,17.60
2022-10-19T15:24:59.844Z,17.60
2022-10-19T15:27:36.218Z,17.60
2022-10-19T15:30:07.234Z,17.50
2022-10-19T15:32:37.976Z,17.50
2022-10-19T15:35:16.966Z,17.40
2022-10-19T15:37:46.483Z,17.30
2022-10-19T15:40:23.889Z,17.30
2022-10-19T15:42:51.940Z,17.20
2022-10-19T15:45:31.258Z,17.10
2022-10-19T15:48:26.842Z,17.10
2022-10-19T15:50:56.257Z,17.00
2022-10-19T15:53:24.359Z,17.00
2022-10-19T15:55:53.824Z,16.90
2022-10-19T15:58:21.959Z,16.90
2022-10-19T16:00:49.956Z,16.80
2022-10-19T16:03:17.975Z,16.80
2022-10-19T16:05:47.163Z,16.70
2022-10-19T16:08:15.226Z,16.70
2022-10-19T16:10:43.214Z,16.60
2022-10-19T16:13:12.569Z,16.60
2022-10-19T16:15:40.641Z,16.50
2022-10-19T16:18:10.647Z,16.50
2022-10-19T16:20:38.796Z,16.40
2022-10-19T16:23:06.802Z,16.40
2022-10-19T16:25:34.895Z,16.40
2022-10-19T16:28:02.918Z,16.30
2022-10-19T16:30:32.526Z,16.30
2022-10-19T16:33:00.545Z,16.20
2022-10-19T16:35:28.824Z,16.10
2022-10-19T16:37:56.821Z,16.00
2022-10-19T16:40:24.875Z,15.90
2022-10-19T16:42:52.888Z,15.90
2022-10-19T16:45:20.868Z,15.80
2022-10-19T16:47:52.183Z,15.80
2022-10-19T16:50:20.461Z,15.80
2022-10-19T16:52:48.714Z,15.70
2022-10-19T16:55:16.749Z,15.70
2022-10-19T16:57:44.754Z,15.70
2022-10-19T17:00:13.781Z,15.60
2022-10-19T17:02:44.375Z,15.60
2022-10-19T17:05:16.048Z,15.60
2022-10-19T17:07:44.123Z,15.50
2022-10-19T17:10:12.164Z,15.50
2022-10-19T17:12:40.787Z,15.40
2022-10-19T17:15:40.868Z,15.40
2022-10-19T17:17:58.982Z,15.40
2022-10-19T17:20:28.417Z,15.30
2022-10-19T17:22:56.448Z,15.30
2022-10-19T17:25:24.463Z,15.30
2022-10-19T17:27:52.918Z,15.20
2022-10-19T17:30:21.220Z,15.20
2022-10-19T17:32:50.037Z,15.20
2022-10-19T17:35:18.134Z,15.20
2022-10-19T17:37:47.406Z,15.10
2022-10-19T17:40:15.373Z,15.10
2022-10-19T17:42:43.445Z,15.00
2022-10-19T17:45:12.126Z,15.00
2022-10-19T17:47:40.157Z,15.00
2022-10-19T17:50:09.257Z,14.90
2022-10-19T17:52:37.314Z,14.90
2022-10-19T17:55:13.155Z,14.90
2022-10-19T17:57:41.562Z,14.90
2022-10-19T18:00:10.334Z,14.90
2022-10-19T18:02:41.378Z,14.80
2022-10-19T18:05:10.294Z,14.80
2022-10-19T18:07:38.389Z,14.80
2022-10-19T18:10:08.578Z,14.70
2022-10-19T18:12:36.594Z,14.70
2022-10-19T18:15:05.221Z,14.70
2022-10-19T18:17:33.298Z,14.60
2022-10-19T18:20:01.243Z,14.60
2022-10-19T18:22:29.328Z,14.60
2022-10-19T18:24:57.430Z,14.50
2022-10-19T18:27:26.856Z,14.50
2022-10-19T18:29:54.784Z,14.50
2022-10-19T18:32:22.871Z,14.50
2022-10-19T18:34:50.886Z,14.40
2022-10-19T18:37:18.801Z,14.40
2022-10-19T18:39:50.317Z,14.40
2022-10-19T18:42:18.600Z,14.40
2022-10-19T18:44:48.204Z,14.30
2022-10-19T18:47:16.220Z,14.30
2022-10-19T18:49:44.217Z,14.30
2022-10-19T18:52:12.176Z,14.20
2022-10-19T18:54:40.359Z,14.20
2022-10-19T18:57:08.327Z,14.20
2022-10-19T18:59:36.315Z,14.20
2022-10-19T19:02:07.824Z,14.10
2022-10-19T19:04:41.661Z,14.10
2022-10-19T19:07:10.142Z,14.00
2022-10-19T19:09:38.252Z,14.00
2022-10-19T19:12:06.316Z,14.00
2022-10-19T19:14:34.389Z,14.00
2022-10-19T19:17:02.389Z,14.00
2022-10-19T19:19:31.709Z,13.90
2022-10-19T19:22:07.792Z,13.90
2022-10-19T19:24:36.927Z,13.90
2022-10-19T19:27:04.998Z,13.80
2022-10-19T19:29:33.061Z,13.80
2022-10-19T19:32:01.126Z,13.80
2022-10-19T19:34:29.111Z,13.80
2022-10-19T19:36:58.403Z,13.80
2022-10-19T19:39:26.440Z,13.80
2022-10-19T19:41:54.372Z,13.70
2022-10-19T19:44:22.342Z,13.70
2022-10-19T19:46:50.330Z,13.70
2022-10-19T19:49:18.463Z,13.70
2022-10-19T19:51:46.453Z,13.70
2022-10-19T19:54:16.021Z,13.70
2022-10-19T19:56:44.016Z,13.70
2022-10-19T19:59:13.402Z,13.70
2022-10-19T20:01:41.705Z,13.60
2022-10-19T20:04:10.067Z,13.60
2022-10-19T20:06:40.225Z,13.60
2022-10-19T20:09:10.605Z,13.50
2022-10-19T20:11:42.718Z,13.50
2022-10-19T20:14:11.252Z,13.50
2022-10-19T20:16:39.344Z,13.50
2022-10-19T20:19:08.964Z,13.50
2022-10-19T20:21:37.292Z,13.50
2022-10-19T20:24:05.531Z,13.40
2022-10-19T20:26:33.893Z,13.40
2022-10-19T20:29:04.851Z,13.40
2022-10-19T20:31:38.697Z,13.40
2022-10-19T20:34:10.621Z,13.40
2022-10-19T20:36:38.614Z,13.30
2022-10-19T20:39:06.761Z,13.30
2022-10-19T20:41:34.775Z,13.30
2022-10-19T20:44:04.324Z,13.20
2022-10-19T20:46:32.579Z,13.30
2022-10-19T20:49:02.461Z,13.30
2022-10-19T20:51:33.250Z,13.30
2022-10-19T20:54:02.910Z,13.30
2022-10-19T20:56:32.811Z,13.30
2022-10-19T21:01:38.863Z,13.20
2022-10-19T21:04:08.705Z,13.20
2022-10-19T21:06:41.788Z,13.10
2022-10-19T21:09:10.761Z,13.00
2022-10-19T21:11:39.889Z,13.00
2022-10-19T21:14:12.485Z,13.00
2022-10-19T21:16:41.297Z,13.00
2022-10-19T21:19:12.404Z,12.90
2022-10-19T21:21:42.566Z,12.90
2022-10-19T21:24:13.430Z,12.90
2022-10-19T21:26:41.543Z,12.80
2022-10-19T21:29:12.629Z,12.80
2022-10-19T21:31:44.036Z,12.80
2022-10-19T21:34:16.718Z,12.80
2022-10-19T21:36:44.908Z,12.80
2022-10-19T21:39:13.663Z,12.80
2022-10-19T21:41:42.071Z,12.80
2022-10-19T21:44:11.449Z,12.80
2022-10-19T21:46:39.461Z,12.80
2022-10-19T21:49:07.415Z,12.80
2022-10-19T21:51:38.776Z,12.80
2022-10-19T21:54:08.813Z,12.80
2022-10-19T21:56:38.350Z,12.70
2022-10-19T21:59:06.368Z,12.70
2022-10-19T22:01:40.161Z,12.70
2022-10-19T22:04:11.922Z,12.70
2022-10-19T22:06:40.663Z,12.70
2022-10-19T22:09:10.748Z,12.70
2022-10-19T22:11:38.867Z,12.70
2022-10-19T22:14:06.917Z,12.70
2022-10-19T22:16:36.824Z,12.70
2022-10-19T22:19:05.226Z,12.70
2022-10-19T22:21:34.827Z,12.70
2022-10-19T22:24:05.241Z,12.60
2022-10-19T22:26:35.020Z,12.60
2022-10-19T22:29:03.801Z,12.70
2022-10-19T22:31:32.662Z,12.70
2022-10-19T22:34:03.412Z,12.70
2022-10-19T22:36:31.415Z,12.70
2022-10-19T22:38:59.413Z,12.70
2022-10-19T22:41:27.394Z,12.70
2022-10-19T22:43:55.358Z,12.70
2022-10-19T22:46:23.448Z,12.70
2022-10-19T22:48:51.457Z,12.70
2022-10-19T22:51:20.801Z,12.70
2022-10-19T22:53:48.791Z,12.70
2022-10-19T22:56:16.772Z,12.70
2022-10-19T22:58:44.795Z,12.70
2022-10-19T23:01:14.844Z,12.70
2022-10-19T23:03:43.203Z,12.70
2022-10-19T23:06:12.753Z,12.70
2022-10-19T23:08:44.134Z,12.70
2022-10-19T23:11:12.594Z,12.70
2022-10-19T23:13:40.985Z,12.70
2022-10-19T23:16:09.830Z,12.70
2022-10-19T23:18:39.149Z,12.70
2022-10-19T23:21:08.865Z,12.60
2022-10-19T23:23:37.888Z,12.60
2022-10-19T23:26:09.907Z,12.60
2022-10-19T23:28:40.014Z,12.60
2022-10-19T23:31:11.711Z,12.60
2022-10-19T23:33:39.713Z,12.60
2022-10-19T23:36:09.549Z,12.60
2022-10-19T23:38:37.558Z,12.60
2022-10-19T23:41:07.140Z,12.60
2022-10-19T23:46:04.393Z,12.60
2022-10-19T23:48:32.414Z,12.60
2022-10-19T23:51:01.587Z,12.60
2022-10-19T23:53:31.061Z,12.50
2022-10-19T23:56:02.686Z,12.50
2022-10-19T23:58:32.317Z,12.60
